Time;durP1;ratioP1;P1;durP2;ratioP2;P2;SDS_P1;SDS_P2;PMS_P1;PMS_P2;Temp;Humidity;BMP_temperature;BMP_pressure;BME280_temperature;BME280_humidity;BME280_pressure;Samples;Min_cycle;Max_cycle;Signal;HPM_P1;HPM_P2
2024/03/26 00:02:07;;;;;;;0.68;0.38;;;9.20;1.00;;;;;;4988313;28;20069;-74
2024/03/26 00:04:33;;;;;;;0.52;0.52;;;9.10;1.00;;;;;;4988579;28;20480;-74
2024/03/26 00:06:58;;;;;;;1.00;0.55;;;9.10;1.00;;;;;;4986849;28;20054;-74
2024/03/26 00:09:24;;;;;;;0.85;0.40;;;9.00;1.00;;;;;;4971928;28;20103;-74
2024/03/26 00:11:50;;;;;;;1.08;0.60;;;9.00;1.00;;;;;;4972893;28;20212;-73
2024/03/26 00:14:16;;;;;;;1.02;0.77;;;9.00;1.00;;;;;;4972124;28;20095;-74
2024/03/26 00:16:42;;;;;;;1.20;0.60;;;8.90;1.00;;;;;;4987891;28;20133;-74
2024/03/26 00:19:07;;;;;;;1.83;0.60;;;8.90;1.00;;;;;;4988134;28;20123;-74
2024/03/26 00:21:34;;;;;;;0.82;0.50;;;8.90;1.00;;;;;;4987676;28;20104;-74
2024/03/26 00:23:59;;;;;;;1.00;0.70;;;8.90;1.00;;;;;;5001666;28;20485;-74
2024/03/26 00:26:25;;;;;;;0.85;0.50;;;8.90;1.00;;;;;;4964798;28;20065;-74
2024/03/26 00:28:51;;;;;;;1.60;0.60;;;8.80;1.00;;;;;;4949679;28;20120;-74
2024/03/26 00:31:17;;;;;;;1.55;0.60;;;8.80;1.00;;;;;;4949466;28;20050;-74
2024/03/26 00:33:43;;;;;;;0.80;0.65;;;8.80;1.00;;;;;;4948979;28;20058;-74
2024/03/26 00:36:09;;;;;;;1.00;0.60;;;8.80;1.00;;;;;;4967946;28;20179;-74
2024/03/26 00:38:35;;;;;;;1.23;0.65;;;8.80;1.00;;;;;;4968396;28;20066;-74
2024/03/26 00:41:01;;;;;;;1.67;1.20;;;8.80;1.00;;;;;;4968381;28;20058;-73
2024/03/26 00:43:27;;;;;;;0.82;0.52;;;8.80;1.00;;;;;;4968735;28;20041;-74
2024/03/26 00:45:53;;;;;;;1.33;0.70;;;8.80;1.00;;;;;;4987446;28;20067;-74
2024/03/26 00:48:18;;;;;;;0.90;0.70;;;8.90;1.00;;;;;;4984514;28;20517;-74
2024/03/26 00:50:44;;;;;;;1.02;0.75;;;8.90;1.00;;;;;;4990024;28;20132;-73
2024/03/26 00:53:11;;;;;;;1.02;0.68;;;8.90;1.00;;;;;;5003468;28;20054;-74
2024/03/26 00:55:36;;;;;;;1.25;0.73;;;8.90;1.00;;;;;;4971336;28;20233;-74
2024/03/26 00:58:02;;;;;;;1.10;0.90;;;8.90;1.00;;;;;;5004338;28;20702;-74
2024/03/26 01:00:28;;;;;;;1.30;0.85;;;8.90;1.00;;;;;;4987521;28;20054;-74
2024/03/26 01:02:54;;;;;;;1.33;0.80;;;8.90;1.00;;;;;;4969222;28;20524;-76
2024/03/26 01:05:20;;;;;;;1.67;1.10;;;8.90;1.00;;;;;;4966633;28;20061;-73
2024/03/26 01:07:46;;;;;;;0.98;0.80;;;8.90;1.00;;;;;;4974505;28;20116;-74
2024/03/26 01:10:11;;;;;;;1.58;0.90;;;8.90;1.00;;;;;;4983138;28;20061;-74
2024/03/26 01:12:37;;;;;;;1.23;0.90;;;8.90;1.00;;;;;;4970899;28;20182;-73
2024/03/26 01:15:03;;;;;;;1.60;0.95;;;8.90;1.00;;;;;;4987459;28;20058;-74
2024/03/26 01:17:29;;;;;;;2.13;1.02;;;8.90;1.00;;;;;;4970536;28;20062;-73
2024/03/26 01:19:55;;;;;;;1.60;0.80;;;8.90;1.00;;;;;;5002622;28;20053;-74
2024/03/26 01:22:21;;;;;;;0.82;0.60;;;8.90;1.00;;;;;;4986788;28;20068;-74
2024/03/26 01:24:47;;;;;;;1.67;0.82;;;8.90;1.00;;;;;;4986869;28;20108;-74
2024/03/26 01:27:12;;;;;;;2.55;0.80;;;9.00;1.00;;;;;;5002886;28;20126;-74
2024/03/26 01:29:38;;;;;;;1.67;0.93;;;8.90;1.00;;;;;;5002795;28;20053;-74
2024/03/26 01:32:04;;;;;;;1.30;0.80;;;9.00;1.00;;;;;;4986414;28;20057;-74
2024/03/26 01:34:30;;;;;;;1.05;0.90;;;9.00;1.00;;;;;;4986769;28;20097;-74
2024/03/26 01:36:56;;;;;;;1.60;1.00;;;9.00;1.00;;;;;;4969435;28;20049;-74
2024/03/26 01:39:22;;;;;;;3.15;1.27;;;9.00;1.00;;;;;;4963381;28;20078;-74
2024/03/26 01:41:47;;;;;;;2.05;1.08;;;9.00;1.00;;;;;;4968114;28;20058;-73
2024/03/26 01:44:13;;;;;;;1.10;0.80;;;9.00;1.00;;;;;;4966973;28;20057;-73
2024/03/26 01:46:39;;;;;;;1.80;0.90;;;9.00;1.00;;;;;;4961487;28;20077;-74
2024/03/26 01:49:05;;;;;;;0.93;0.65;;;9.00;1.00;;;;;;4967054;28;20061;-74
2024/03/26 01:51:32;;;;;;;1.42;0.88;;;9.10;1.00;;;;;;4942547;28;20478;-73
2024/03/26 01:53:59;;;;;;;1.20;0.70;;;9.10;1.00;;;;;;4960620;28;20446;-74
2024/03/26 01:56:25;;;;;;;0.82;0.57;;;9.10;1.00;;;;;;4972916;28;20502;-73
2024/03/26 01:58:51;;;;;;;1.80;0.90;;;9.00;1.00;;;;;;4950933;28;20047;-74
2024/03/26 02:01:17;;;;;;;1.50;1.02;;;9.00;1.00;;;;;;4950761;28;20142;-74
2024/03/26 02:03:43;;;;;;;2.10;1.10;;;9.00;1.00;;;;;;4981960;28;20145;-74
2024/03/26 02:06:09;;;;;;;1.50;1.02;;;9.00;1.00;;;;;;4978639;28;20124;-75
2024/03/26 02:08:34;;;;;;;3.25;1.20;;;9.00;1.00;;;;;;4952325;28;20110;-74
2024/03/26 02:11:00;;;;;;;1.95;1.27;;;9.00;1.00;;;;;;4955022;28;20058;-74
2024/03/26 02:13:26;;;;;;;2.05;1.10;;;9.00;1.00;;;;;;4967188;28;20140;-74
2024/03/26 02:15:52;;;;;;;1.90;1.10;;;9.00;1.00;;;;;;4985631;28;20045;-74
2024/03/26 02:18:18;;;;;;;1.98;1.10;;;9.00;1.00;;;;;;4943478;28;20054;-74
2024/03/26 02:20:43;;;;;;;1.67;0.77;;;9.10;1.00;;;;;;4982236;28;20054;-74
2024/03/26 02:23:09;;;;;;;1.48;0.93;;;9.10;1.00;;;;;;4966756;28;20085;-74
2024/03/26 02:25:35;;;;;;;0.75;0.63;;;9.10;1.00;;;;;;4967980;28;20054;-73
2024/03/26 02:28:01;;;;;;;1.67;0.95;;;9.10;1.00;;;;;;4985420;28;20054;-74
2024/03/26 02:30:29;;;;;;;1.52;0.90;;;9.20;1.00;;;;;;4985399;28;20116;-74
2024/03/26 02:32:55;;;;;;;1.42;0.80;;;9.20;1.00;;;;;;4960162;28;20577;-74
2024/03/26 02:35:21;;;;;;;1.05;0.70;;;9.20;1.00;;;;;;4949762;28;20050;-73
2024/03/26 02:37:48;;;;;;;1.00;0.70;;;9.20;1.00;;;;;;4949833;28;20061;-74
2024/03/26 02:40:14;;;;;;;0.85;0.63;;;9.20;1.00;;;;;;4970022;28;20917;-74
2024/03/26 02:42:40;;;;;;;1.00;0.65;;;9.20;1.00;;;;;;4985905;28;20046;-74
2024/03/26 02:45:06;;;;;;;0.73;0.70;;;9.30;1.00;;;;;;4947624;28;20054;-74
2024/03/26 02:47:32;;;;;;;0.65;0.60;;;9.30;1.00;;;;;;4990227;28;20065;-73
2024/03/26 02:49:58;;;;;;;1.00;0.65;;;9.30;1.00;;;;;;4969287;28;20074;-74
2024/03/26 02:52:24;;;;;;;1.15;0.60;;;9.30;1.00;;;;;;4979967;28;20060;-74
2024/03/26 02:54:49;;;;;;;1.33;0.80;;;9.30;1.00;;;;;;4961007;28;20054;-74
2024/03/26 02:57:15;;;;;;;1.35;0.65;;;9.30;1.00;;;;;;4968873;28;20062;-74
2024/03/26 02:59:41;;;;;;;0.43;0.43;;;9.20;1.00;;;;;;4968901;28;20160;-74
2024/03/26 03:02:07;;;;;;;0.55;0.50;;;9.30;1.00;;;;;;4987711;28;20057;-73
2024/03/26 03:04:33;;;;;;;0.60;0.40;;;9.30;1.00;;;;;;4970294;28;20069;-73
2024/03/26 03:06:59;;;;;;;0.65;0.50;;;9.30;1.00;;;;;;4971780;28;20096;-73
2024/03/26 03:09:25;;;;;;;0.65;0.30;;;9.30;1.00;;;;;;4970395;28;20058;-73
2024/03/26 03:11:51;;;;;;;1.13;0.60;;;9.30;1.00;;;;;;4988523;28;20058;-73
2024/03/26 03:14:16;;;;;;;0.85;0.60;;;9.30;1.00;;;;;;5001354;28;20054;-74
2024/03/26 03:16:42;;;;;;;1.08;0.50;;;9.30;1.00;;;;;;4982295;28;20053;-74
2024/03/26 03:19:08;;;;;;;2.08;0.60;;;9.30;1.00;;;;;;4990434;28;20101;-73
2024/03/26 03:21:34;;;;;;;0.60;0.50;;;9.30;1.00;;;;;;4984405;28;20061;-73
2024/03/26 03:24:00;;;;;;;1.20;0.63;;;9.30;1.00;;;;;;4984163;28;20077;-73
2024/03/26 03:26:26;;;;;;;0.98;0.65;;;9.30;1.00;;;;;;4972826;28;20082;-73
2024/03/26 03:28:51;;;;;;;0.90;0.60;;;9.30;1.00;;;;;;4973722;28;20061;-73
2024/03/26 03:31:17;;;;;;;1.48;0.77;;;9.30;1.00;;;;;;5006481;28;20111;-73
2024/03/26 03:33:44;;;;;;;0.90;0.60;;;9.30;1.00;;;;;;4993864;28;20058;-73
2024/03/26 03:36:11;;;;;;;0.50;0.40;;;9.30;1.00;;;;;;4971657;28;20660;-73
2024/03/26 03:38:36;;;;;;;0.63;0.63;;;9.30;1.00;;;;;;4988889;28;20042;-73
2024/03/26 03:41:03;;;;;;;0.88;0.70;;;9.30;1.00;;;;;;4970170;28;20073;-73
2024/03/26 03:43:28;;;;;;;1.30;0.70;;;9.30;1.00;;;;;;4995028;28;20085;-76
2024/03/26 03:45:54;;;;;;;1.30;0.65;;;9.30;1.00;;;;;;4998289;28;20491;-76
2024/03/26 03:48:20;;;;;;;0.88;0.60;;;9.30;1.00;;;;;;4991676;28;20120;-75
2024/03/26 03:50:46;;;;;;;0.75;0.52;;;9.30;1.00;;;;;;4976394;28;20053;-73
2024/03/26 03:53:12;;;;;;;0.80;0.80;;;9.30;1.00;;;;;;4972923;28;20058;-76
2024/03/26 03:55:37;;;;;;;0.90;0.70;;;9.30;1.00;;;;;;4971992;28;20046;-76
2024/03/26 03:58:03;;;;;;;0.60;0.55;;;9.30;1.00;;;;;;4987074;28;20045;-73
2024/03/26 04:00:29;;;;;;;0.95;0.70;;;9.30;1.00;;;;;;4972362;28;20065;-74
2024/03/26 04:02:55;;;;;;;1.48;1.05;;;9.30;1.00;;;;;;4979836;28;20157;-76
2024/03/26 04:05:21;;;;;;;1.42;0.75;;;9.30;1.00;;;;;;4970785;28;20069;-76
2024/03/26 04:07:47;;;;;;;1.45;0.73;;;9.30;1.00;;;;;;4975130;28;20050;-76
2024/03/26 04:10:14;;;;;;;1.58;0.90;;;9.30;1.00;;;;;;4974871;28;20046;-74
2024/03/26 04:12:39;;;;;;;1.08;0.88;;;9.30;1.00;;;;;;4958378;28;20533;-74
2024/03/26 04:15:07;;;;;;;1.02;0.55;;;9.40;1.00;;;;;;4990426;28;20049;-74
2024/03/26 04:17:33;;;;;;;0.52;0.52;;;9.30;1.00;;;;;;5003566;28;20061;-74
2024/03/26 04:19:59;;;;;;;1.65;0.98;;;9.30;1.00;;;;;;5000716;28;20464;-74
2024/03/26 04:22:24;;;;;;;0.60;0.60;;;9.30;1.00;;;;;;4982578;28;20050;-74
2024/03/26 04:24:50;;;;;;;0.60;0.40;;;9.40;1.00;;;;;;4969688;28;20108;-74
2024/03/26 04:27:16;;;;;;;1.35;0.70;;;9.30;1.00;;;;;;4970050;28;20046;-74
2024/03/26 04:29:42;;;;;;;1.27;0.70;;;9.30;1.00;;;;;;4970947;28;20061;-74
2024/03/26 04:32:08;;;;;;;0.50;0.50;;;9.30;1.00;;;;;;4958120;28;20076;-74
2024/03/26 04:34:34;;;;;;;0.40;0.40;;;9.40;1.00;;;;;;4988547;28;20057;-73
2024/03/26 04:37:01;;;;;;;1.45;0.70;;;9.40;1.00;;;;;;4972712;28;20058;-74
2024/03/26 04:39:27;;;;;;;1.58;0.77;;;9.30;1.00;;;;;;4956676;28;20521;-74
2024/03/26 04:41:54;;;;;;;0.50;0.50;;;9.30;1.00;;;;;;4986926;28;20050;-74
2024/03/26 04:44:20;;;;;;;0.63;0.50;;;9.30;1.00;;;;;;4971388;28;20212;-74
2024/03/26 04:46:46;;;;;;;1.85;0.80;;;9.30;1.00;;;;;;4954244;28;20066;-73
2024/03/26 04:49:12;;;;;;;0.75;0.50;;;9.40;1.00;;;;;;4970108;28;20054;-74
2024/03/26 04:51:38;;;;;;;2.00;0.70;;;9.30;1.00;;;;;;4966784;28;20244;-74
2024/03/26 04:54:04;;;;;;;0.45;0.40;;;9.40;1.00;;;;;;4952571;28;20054;-74
2024/03/26 04:56:30;;;;;;;0.60;0.60;;;9.40;1.00;;;;;;5005660;28;20055;-74
2024/03/26 04:58:56;;;;;;;0.80;0.43;;;9.30;1.00;;;;;;4985019;28;20087;-74
2024/03/26 05:01:22;;;;;;;0.77;0.63;;;9.30;1.00;;;;;;4959490;28;20058;-74
2024/03/26 05:03:48;;;;;;;0.90;0.80;;;9.30;1.00;;;;;;4965862;28;20124;-74
2024/03/26 05:06:13;;;;;;;1.30;0.80;;;9.30;1.00;;;;;;4985351;28;20057;-74
2024/03/26 05:08:41;;;;;;;1.40;0.80;;;9.30;1.00;;;;;;4970491;28;20050;-74
2024/03/26 05:11:07;;;;;;;0.93;0.65;;;9.30;1.00;;;;;;4973773;28;20050;-74
2024/03/26 05:13:32;;;;;;;1.10;0.70;;;9.30;1.00;;;;;;5005631;28;20061;-73
2024/03/26 05:15:59;;;;;;;1.13;0.73;;;9.30;1.00;;;;;;5005992;28;20046;-76
2024/03/26 05:18:25;;;;;;;1.23;0.90;;;9.30;1.00;;;;;;4989459;28;20065;-75
2024/03/26 05:20:51;;;;;;;1.33;0.90;;;9.30;1.00;;;;;;4975384;28;20101;-75
2024/03/26 05:23:18;;;;;;;0.90;0.60;;;9.30;1.00;;;;;;4965603;28;20049;-75
2024/03/26 05:25:44;;;;;;;1.45;0.65;;;9.30;1.00;;;;;;4960866;28;20150;-75
2024/03/26 05:28:10;;;;;;;1.05;0.85;;;9.30;1.00;;;;;;4951988;28;20058;-75
2024/03/26 05:30:38;;;;;;;0.93;0.63;;;9.30;1.00;;;;;;4959032;28;20141;-75
2024/03/26 05:33:04;;;;;;;0.70;0.52;;;9.30;1.00;;;;;;4943453;28;20321;-75
2024/03/26 05:35:30;;;;;;;0.90;0.70;;;9.30;1.00;;;;;;4955372;28;20104;-75
2024/03/26 05:37:58;;;;;;;0.70;0.52;;;9.30;1.00;;;;;;4954290;28;20046;-75
2024/03/26 05:40:24;;;;;;;1.17;0.82;;;9.30;1.00;;;;;;4938392;28;20083;-75
2024/03/26 05:42:50;;;;;;;0.75;0.60;;;9.30;1.00;;;;;;4969731;28;20073;-76
2024/03/26 05:45:16;;;;;;;0.60;0.60;;;9.30;1.00;;;;;;4987325;28;20140;-77
2024/03/26 05:47:42;;;;;;;0.85;0.65;;;9.30;1.00;;;;;;4989080;28;20103;-76
2024/03/26 05:50:08;;;;;;;0.68;0.60;;;9.30;1.00;;;;;;4981562;28;20136;-74
2024/03/26 05:52:34;;;;;;;0.47;0.47;;;9.30;1.00;;;;;;4983994;28;20054;-74
2024/03/26 05:55:00;;;;;;;0.50;0.47;;;9.30;1.00;;;;;;4985744;28;20557;-74
2024/03/26 05:57:26;;;;;;;1.00;0.50;;;9.20;1.00;;;;;;4953394;28;20082;-73
2024/03/26 05:59:52;;;;;;;1.67;0.93;;;9.30;1.00;;;;;;5001625;28;20520;-74
2024/03/26 06:02:17;;;;;;;0.85;0.70;;;9.20;1.00;;;;;;4999720;28;20049;-74
2024/03/26 06:04:45;;;;;;;1.55;1.20;;;9.20;1.00;;;;;;4996835;28;20084;-75
2024/03/26 06:07:12;;;;;;;1.70;1.10;;;9.20;1.00;;;;;;4998949;28;20054;-74
2024/03/26 06:09:38;;;;;;;1.50;0.90;;;9.20;1.00;;;;;;4985325;28;20050;-74
2024/03/26 06:12:04;;;;;;;1.50;1.02;;;9.20;1.00;;;;;;4983248;28;20056;-74
2024/03/26 06:14:30;;;;;;;2.17;1.08;;;9.20;1.00;;;;;;4979296;28;20088;-74
2024/03/26 06:16:56;;;;;;;1.45;1.05;;;9.20;1.00;;;;;;4986924;28;20725;-74
2024/03/26 06:19:22;;;;;;;1.30;1.00;;;9.10;1.00;;;;;;4989487;28;20065;-73
2024/03/26 06:21:47;;;;;;;1.25;0.90;;;9.20;1.00;;;;;;4996665;28;20136;-73
2024/03/26 06:24:13;;;;;;;1.20;0.70;;;9.20;1.00;;;;;;4991702;28;20554;-76
2024/03/26 06:26:39;;;;;;;1.08;0.70;;;9.30;1.00;;;;;;4981787;28;20061;-74
2024/03/26 06:29:05;;;;;;;1.05;0.80;;;9.20;1.00;;;;;;4983901;28;20100;-74
2024/03/26 06:31:31;;;;;;;1.58;0.85;;;9.20;1.00;;;;;;5001935;28;20057;-74
2024/03/26 06:33:57;;;;;;;2.13;1.00;;;9.20;1.00;;;;;;4967088;28;20137;-74
2024/03/26 06:36:23;;;;;;;3.63;1.25;;;9.20;1.00;;;;;;4965487;28;20050;-74
2024/03/26 06:38:48;;;;;;;1.00;0.70;;;9.30;1.00;;;;;;4982310;28;20101;-74
2024/03/26 06:41:14;;;;;;;1.08;0.85;;;9.30;1.00;;;;;;4981912;28;20097;-74
2024/03/26 06:43:40;;;;;;;1.90;1.10;;;9.30;1.00;;;;;;4964188;28;20050;-73
2024/03/26 06:46:06;;;;;;;2.40;1.00;;;9.30;1.00;;;;;;4960136;28;20050;-74
2024/03/26 06:48:32;;;;;;;0.95;0.80;;;9.40;1.00;;;;;;4951729;28;20058;-75
2024/03/26 06:50:57;;;;;;;1.38;1.00;;;9.40;1.00;;;;;;4958199;28;20096;-75
2024/03/26 06:53:23;;;;;;;1.48;0.93;;;9.40;1.00;;;;;;4976573;28;20050;-75
2024/03/26 06:55:49;;;;;;;1.42;1.23;;;9.40;1.00;;;;;;4979374;28;20053;-73
2024/03/26 06:58:15;;;;;;;1.38;0.98;;;9.50;1.00;;;;;;4962695;28;20061;-75
2024/03/26 07:00:41;;;;;;;0.98;0.88;;;9.50;1.00;;;;;;4978388;28;20054;-75
2024/03/26 07:03:07;;;;;;;1.55;1.20;;;9.60;1.00;;;;;;4975344;28;20437;-75
2024/03/26 07:05:33;;;;;;;2.83;1.33;;;9.60;1.00;;;;;;4977477;28;20082;-75
2024/03/26 07:07:59;;;;;;;2.13;1.25;;;9.60;1.00;;;;;;4964251;28;20089;-75
2024/03/26 07:10:25;;;;;;;2.00;1.30;;;9.60;1.00;;;;;;4977537;28;20049;-75
2024/03/26 07:12:51;;;;;;;1.92;1.40;;;9.60;1.00;;;;;;4976086;28;20050;-75
2024/03/26 07:15:18;;;;;;;2.88;1.17;;;9.70;1.00;;;;;;4976493;28;20494;-76
2024/03/26 07:17:43;;;;;;;2.78;1.35;;;9.70;1.00;;;;;;4979267;28;20061;-76
2024/03/26 07:20:11;;;;;;;1.85;1.00;;;9.80;1.00;;;;;;4965331;28;20099;-76
2024/03/26 07:22:39;;;;;;;1.25;0.85;;;9.90;1.00;;;;;;4961634;28;20058;-76
2024/03/26 07:25:05;;;;;;;2.25;1.40;;;10.00;1.00;;;;;;4933538;28;20378;-76
2024/03/26 07:27:31;;;;;;;2.30;1.35;;;10.00;1.00;;;;;;4978579;28;20054;-76
2024/03/26 07:29:58;;;;;;;1.45;1.00;;;10.00;1.00;;;;;;4978302;28;20590;-76
2024/03/26 07:32:24;;;;;;;1.90;1.50;;;10.10;1.00;;;;;;4967162;28;20073;-74
2024/03/26 07:34:50;;;;;;;1.85;1.25;;;10.10;1.00;;;;;;4984354;28;20073;-74
2024/03/26 07:37:16;;;;;;;1.45;1.08;;;10.20;1.00;;;;;;4956340;28;20058;-74
2024/03/26 07:39:42;;;;;;;1.10;0.88;;;10.20;1.00;;;;;;4968703;28;20747;-74
2024/03/26 07:42:08;;;;;;;0.93;0.80;;;10.30;1.00;;;;;;4983413;28;20054;-74
2024/03/26 07:44:34;;;;;;;1.83;1.30;;;10.40;1.00;;;;;;4966067;28;20906;-73
2024/03/26 07:47:00;;;;;;;2.78;1.40;;;10.50;1.00;;;;;;4965877;28;20943;-73
2024/03/26 07:49:26;;;;;;;1.00;0.85;;;10.60;1.00;;;;;;4982392;28;20081;-74
2024/03/26 07:51:52;;;;;;;2.08;1.05;;;10.70;1.00;;;;;;4984301;28;20093;-74
2024/03/26 07:54:20;;;;;;;1.33;0.90;;;10.80;1.00;;;;;;4985172;28;20080;-74
2024/03/26 07:56:46;;;;;;;1.52;1.17;;;10.80;1.00;;;;;;4985296;28;20057;-74
2024/03/26 07:59:12;;;;;;;2.60;1.10;;;10.80;1.00;;;;;;4985230;28;20065;-74
2024/03/26 08:01:38;;;;;;;1.73;1.35;;;10.90;1.00;;;;;;4969090;28;20078;-74
2024/03/26 08:04:05;;;;;;;1.10;0.90;;;10.90;1.00;;;;;;4987403;28;20054;-73
2024/03/26 08:06:32;;;;;;;2.88;1.67;;;11.00;1.00;;;;;;4984535;28;20050;-74
2024/03/26 08:08:58;;;;;;;1.80;1.30;;;10.90;1.00;;;;;;4969083;28;20085;-74
2024/03/26 08:11:24;;;;;;;1.50;1.08;;;11.00;1.00;;;;;;4953417;28;20058;-74
2024/03/26 08:13:49;;;;;;;3.60;1.35;;;11.10;1.00;;;;;;4952882;28;20458;-74
2024/03/26 08:16:15;;;;;;;2.25;0.90;;;11.20;1.00;;;;;;4953175;28;20560;-73
2024/03/26 08:18:41;;;;;;;1.70;1.10;;;11.20;1.00;;;;;;4952864;28;20137;-74
2024/03/26 08:21:07;;;;;;;1.73;1.00;;;11.30;1.00;;;;;;4951786;28;20066;-74
2024/03/26 08:23:33;;;;;;;1.33;0.80;;;11.40;1.00;;;;;;4950863;28;20987;-74
2024/03/26 08:25:59;;;;;;;2.05;1.35;;;11.40;1.00;;;;;;4933816;28;20062;-74
2024/03/26 08:28:25;;;;;;;3.10;1.40;;;11.50;1.00;;;;;;4933804;28;20054;-73
2024/03/26 08:30:51;;;;;;;2.58;1.25;;;11.50;1.00;;;;;;4952804;28;20145;-74
2024/03/26 08:33:20;;;;;;;2.47;1.10;;;11.50;1.00;;;;;;4951613;28;20506;-74
2024/03/26 08:35:46;;;;;;;1.70;1.00;;;11.40;1.00;;;;;;4951922;28;20068;-74
2024/03/26 08:38:12;;;;;;;1.63;0.98;;;11.50;1.00;;;;;;4952521;28;20161;-74
2024/03/26 08:40:38;;;;;;;1.90;0.70;;;11.50;1.00;;;;;;4951790;28;20526;-74
2024/03/26 08:43:04;;;;;;;1.23;0.60;;;11.40;1.00;;;;;;4951806;28;20138;-74
2024/03/26 08:45:29;;;;;;;0.98;0.75;;;11.40;1.00;;;;;;4951699;28;20430;-73
2024/03/26 08:47:56;;;;;;;0.95;0.60;;;11.40;1.00;;;;;;4983965;28;20068;-74
2024/03/26 08:50:22;;;;;;;1.30;0.68;;;11.50;1.00;;;;;;4935506;28;20057;-74
2024/03/26 08:52:48;;;;;;;1.13;0.80;;;11.50;1.00;;;;;;4935253;28;20077;-74
2024/03/26 08:55:14;;;;;;;1.08;0.60;;;11.60;1.00;;;;;;4933224;28;20066;-74
2024/03/26 08:57:40;;;;;;;0.85;0.68;;;11.60;1.00;;;;;;4969532;28;20104;-74
2024/03/26 09:00:10;;;;;;;1.23;0.80;;;11.60;1.00;;;;;;4966001;28;20057;-77
2024/03/26 09:02:37;;;;;;;1.10;0.80;;;11.60;1.00;;;;;;4963289;28;20260;-74
2024/03/26 09:05:03;;;;;;;1.42;0.75;;;11.60;1.00;;;;;;4967599;28;20053;-74
2024/03/26 09:07:29;;;;;;;1.35;1.00;;;11.70;1.00;;;;;;4962921;28;20053;-74
2024/03/26 09:09:55;;;;;;;1.05;0.88;;;11.80;1.00;;;;;;4978517;28;20068;-74
2024/03/26 09:12:20;;;;;;;1.25;0.70;;;11.90;1.00;;;;;;4963413;28;20089;-74
2024/03/26 09:14:46;;;;;;;1.17;0.85;;;11.90;1.00;;;;;;4964465;28;20753;-74
2024/03/26 09:17:12;;;;;;;2.90;0.90;;;12.00;1.00;;;;;;4964767;28;20143;-74
2024/03/26 09:19:38;;;;;;;1.17;0.80;;;12.10;1.00;;;;;;4979900;28;20600;-74
2024/03/26 09:22:04;;;;;;;1.98;1.10;;;12.30;1.00;;;;;;4964579;28;20060;-74
2024/03/26 09:24:30;;;;;;;0.90;0.70;;;12.40;1.00;;;;;;4964322;28;20875;-74
2024/03/26 09:26:56;;;;;;;1.23;0.80;;;12.50;1.00;;;;;;4980701;28;20046;-74
2024/03/26 09:29:22;;;;;;;1.30;0.80;;;12.60;1.00;;;;;;4981239;28;20050;-74
2024/03/26 09:31:47;;;;;;;1.35;0.80;;;12.60;1.00;;;;;;4963736;28;20689;-74
2024/03/26 09:34:14;;;;;;;0.68;0.60;;;12.60;1.00;;;;;;4983871;28;20129;-74
2024/03/26 09:36:40;;;;;;;0.60;0.50;;;12.70;1.00;;;;;;4960540;28;20062;-74
2024/03/26 09:39:06;;;;;;;1.50;1.00;;;12.90;1.00;;;;;;4929580;28;20065;-74
2024/03/26 09:41:32;;;;;;;2.20;0.85;;;13.00;1.00;;;;;;4942942;28;20173;-74
2024/03/26 09:43:57;;;;;;;1.63;1.05;;;13.00;1.00;;;;;;4974866;28;20066;-74
2024/03/26 09:46:23;;;;;;;0.80;0.70;;;13.10;1.00;;;;;;4963014;28;20054;-74
2024/03/26 09:48:51;;;;;;;1.48;0.82;;;13.30;1.00;;;;;;4995185;28;20046;-81
2024/03/26 09:51:17;;;;;;;1.60;1.00;;;13.30;1.00;;;;;;4963473;28;20485;-73
2024/03/26 09:53:43;;;;;;;0.88;0.70;;;13.40;1.00;;;;;;4963454;28;20046;-73
2024/03/26 09:56:09;;;;;;;1.10;0.70;;;13.50;1.00;;;;;;4952677;28;20053;-73
2024/03/26 09:58:36;;;;;;;0.57;0.50;;;13.60;1.00;;;;;;4969951;28;20115;-72
2024/03/26 10:01:02;;;;;;;0.95;0.80;;;13.70;1.00;;;;;;4986319;28;20061;-73
2024/03/26 10:03:29;;;;;;;0.60;0.43;;;13.80;1.00;;;;;;4985438;28;20065;-73
2024/03/26 10:05:55;;;;;;;1.25;0.70;;;13.90;1.00;;;;;;4953378;28;20061;-73
2024/03/26 10:08:21;;;;;;;0.95;0.70;;;14.00;1.00;;;;;;4969765;28;20057;-73
2024/03/26 10:10:47;;;;;;;0.68;0.50;;;14.10;1.00;;;;;;4968534;28;20046;-73
2024/03/26 10:13:13;;;;;;;0.80;0.52;;;14.10;1.00;;;;;;4982059;28;20127;-73
2024/03/26 10:15:39;;;;;;;1.00;0.70;;;14.20;1.00;;;;;;4983466;28;20057;-73
2024/03/26 10:18:06;;;;;;;0.50;0.40;;;14.20;1.00;;;;;;4986449;28;20144;-73
2024/03/26 10:20:32;;;;;;;1.55;0.77;;;14.30;1.00;;;;;;4966953;28;20516;-73
2024/03/26 10:23:01;;;;;;;0.80;0.68;;;14.30;1.00;;;;;;4947018;28;20522;-73
2024/03/26 10:25:27;;;;;;;1.10;0.60;;;14.40;1.00;;;;;;4963709;28;20081;-73
2024/03/26 10:27:55;;;;;;;1.33;0.68;;;14.50;1.00;;;;;;4947226;28;20054;-73
2024/03/26 10:30:21;;;;;;;1.20;0.60;;;14.50;1.00;;;;;;4982419;28;20046;-74
2024/03/26 10:32:56;;;;;;;1.67;0.95;;;14.60;1.00;;;;;;4966082;28;20403;-73
2024/03/26 10:35:22;;;;;;;0.93;0.70;;;14.60;1.00;;;;;;4950619;28;20493;-73
2024/03/26 10:37:53;;;;;;;1.15;0.93;;;14.60;1.00;;;;;;4950436;28;20061;-74
2024/03/26 10:40:40;;;;;;;1.40;1.10;;;14.70;1.00;;;;;;4950825;28;20513;-73
2024/03/26 10:43:05;;;;;;;1.23;0.80;;;14.80;1.00;;;;;;4955302;28;20066;-73
2024/03/26 10:45:31;;;;;;;0.95;0.80;;;14.90;1.00;;;;;;4969908;28;20119;-73
2024/03/26 10:47:57;;;;;;;0.95;0.60;;;15.00;1.00;;;;;;4953784;28;20477;-73
2024/03/26 10:50:23;;;;;;;1.35;0.70;;;15.20;1.00;;;;;;4951994;28;20049;-73
2024/03/26 10:52:50;;;;;;;0.85;0.63;;;15.30;1.00;;;;;;4950170;28;20058;-72
2024/03/26 10:55:16;;;;;;;0.90;0.70;;;15.40;1.00;;;;;;4965746;28;20486;-73
2024/03/26 10:57:42;;;;;;;0.90;0.60;;;15.60;1.00;;;;;;4969201;28;20061;-73
2024/03/26 11:00:10;;;;;;;0.63;0.55;;;15.80;1.00;;;;;;4953573;28;20062;-73
2024/03/26 11:02:38;;;;;;;1.63;0.95;;;15.90;1.00;;;;;;4970189;28;20057;-73
2024/03/26 11:05:05;;;;;;;2.28;1.33;;;15.90;1.00;;;;;;4968806;28;20088;-73
2024/03/26 11:07:35;;;;;;;1.73;1.00;;;15.80;1.00;;;;;;4952889;28;20449;-72
2024/03/26 11:10:15;;;;;;;0.98;0.70;;;15.90;1.00;;;;;;4969455;28;20497;-73
2024/03/26 11:12:41;;;;;;;0.52;0.45;;;16.00;1.00;;;;;;4969759;28;20065;-73
2024/03/26 11:15:22;;;;;;;0.77;0.60;;;16.20;1.00;;;;;;4949968;28;20050;-73
2024/03/26 11:17:57;;;;;;;1.20;0.70;;;16.50;1.00;;;;;;4979044;28;20065;-73
2024/03/26 11:20:24;;;;;;;0.47;0.47;;;16.60;1.00;;;;;;4978682;28;20154;-73
2024/03/26 11:23:05;;;;;;;0.45;0.45;;;16.60;1.00;;;;;;4964815;28;20112;-73
2024/03/26 11:25:32;;;;;;;0.68;0.63;;;16.80;1.00;;;;;;4981518;28;20050;-73
2024/03/26 11:27:59;;;;;;;1.23;0.70;;;16.80;1.00;;;;;;4966596;28;20104;-73
2024/03/26 11:30:28;;;;;;;0.95;0.60;;;16.80;1.00;;;;;;4953532;28;20140;-73
2024/03/26 11:32:54;;;;;;;1.48;1.05;;;16.70;1.00;;;;;;4971946;28;20058;-73
2024/03/26 11:35:21;;;;;;;1.10;1.00;;;16.70;1.00;;;;;;4972086;28;20061;-72
2024/03/26 11:37:48;;;;;;;1.40;0.80;;;16.70;1.00;;;;;;5004555;28;20068;-73
2024/03/26 11:40:14;;;;;;;0.75;0.70;;;16.80;1.00;;;;;;4956741;28;20045;-73
2024/03/26 11:42:41;;;;;;;2.15;1.35;;;16.80;1.00;;;;;;4956323;28;20073;-73
2024/03/26 11:45:07;;;;;;;0.73;0.60;;;16.90;1.00;;;;;;4988166;28;20054;-73
2024/03/26 11:47:33;;;;;;;1.67;1.00;;;17.00;1.00;;;;;;4985862;28;20061;-73
2024/03/26 11:50:00;;;;;;;1.67;0.90;;;17.00;1.00;;;;;;4969033;28;20045;-72
2024/03/26 11:52:25;;;;;;;1.60;1.00;;;17.10;1.00;;;;;;4972054;28;20512;-73
2024/03/26 11:54:51;;;;;;;1.60;1.08;;;17.20;1.00;;;;;;4972131;28;20057;-73
2024/03/26 11:57:20;;;;;;;0.98;0.60;;;17.10;1.00;;;;;;5005503;28;20057;-72
2024/03/26 11:59:46;;;;;;;1.40;1.00;;;17.20;1.00;;;;;;4988172;28;20841;-73
2024/03/26 12:02:12;;;;;;;1.42;0.85;;;17.30;1.00;;;;;;4988439;28;20058;-73
2024/03/26 12:04:39;;;;;;;1.30;0.85;;;17.20;1.00;;;;;;4988069;28;20061;-73
2024/03/26 12:07:05;;;;;;;1.65;0.90;;;17.30;1.00;;;;;;5003743;28;20568;-73
2024/03/26 12:09:32;;;;;;;0.75;0.60;;;17.30;1.00;;;;;;4988522;28;20066;-72
2024/03/26 12:11:59;;;;;;;0.82;0.73;;;17.30;1.00;;;;;;4970184;28;20061;-73
2024/03/26 12:14:25;;;;;;;0.77;0.50;;;17.40;1.00;;;;;;5000873;28;20049;-73
2024/03/26 12:16:51;;;;;;;0.90;0.60;;;17.40;1.00;;;;;;5001182;28;20140;-73
2024/03/26 12:19:17;;;;;;;0.90;0.60;;;17.30;1.00;;;;;;5001057;28;20465;-73
2024/03/26 12:21:44;;;;;;;0.55;0.52;;;17.30;1.00;;;;;;5000570;28;20057;-73
2024/03/26 12:24:12;;;;;;;0.95;0.68;;;17.40;1.00;;;;;;5002316;28;20061;-73
2024/03/26 12:26:39;;;;;;;0.68;0.47;;;17.40;1.00;;;;;;5004074;28;20084;-73
2024/03/26 12:29:04;;;;;;;0.60;0.45;;;17.60;1.00;;;;;;4987222;28;20066;-73
2024/03/26 12:31:30;;;;;;;0.70;0.60;;;17.70;1.00;;;;;;4984534;28;20515;-73
2024/03/26 12:34:12;;;;;;;0.90;0.60;;;17.80;1.00;;;;;;4984059;28;20414;-73
2024/03/26 12:36:38;;;;;;;0.52;0.50;;;17.90;1.00;;;;;;4999657;28;20497;-72
2024/03/26 12:39:05;;;;;;;0.80;0.50;;;18.00;1.00;;;;;;5001053;28;20050;-73
2024/03/26 12:41:31;;;;;;;0.98;0.60;;;17.80;1.00;;;;;;5003754;28;20595;-72
2024/03/26 12:43:57;;;;;;;1.33;0.80;;;17.90;1.00;;;;;;5002722;28;20470;-73
2024/03/26 12:46:23;;;;;;;1.17;0.80;;;17.90;1.00;;;;;;4984508;28;20124;-73
2024/03/26 12:48:49;;;;;;;0.60;0.40;;;17.80;1.00;;;;;;5000127;28;20473;-73
2024/03/26 12:51:15;;;;;;;0.63;0.55;;;17.80;1.00;;;;;;5002347;28;20089;-73
2024/03/26 12:53:42;;;;;;;0.73;0.60;;;17.70;1.00;;;;;;5003718;28;20412;-73
2024/03/26 12:56:08;;;;;;;0.50;0.50;;;17.60;1.00;;;;;;5000193;28;20073;-73
2024/03/26 12:58:34;;;;;;;1.40;0.68;;;17.50;1.00;;;;;;5000149;28;20080;-73